Time;durP1;ratioP1;P1;durP2;ratioP2;P2;SDS_P1;SDS_P2;PMS_P1;PMS_P2;Temp;Humidity;BMP_temperature;BMP_pressure;BME280_temperature;BME280_humidity;BME280_pressure;Samples;Min_cycle;Max_cycle;Signal;HPM_P1;HPM_P2
2021/12/30 00:01:41;;;;;;;3.78;2.30;;;12.60;99.90;;;;;;5027536;28;20105;-75
2021/12/30 00:04:08;;;;;;;1.80;1.58;;;12.60;99.90;;;;;;5028815;28;20120;-75
2021/12/30 00:06:39;;;;;;;2.88;1.90;;;12.70;99.90;;;;;;5029110;28;20562;-75
2021/12/30 00:09:05;;;;;;;;;;;12.80;99.90;;;;;;5029746;28;20507;-76
2021/12/30 00:11:31;;;;;;;2.15;1.73;;;12.80;99.90;;;;;;5028327;28;19964;-75
2021/12/30 00:13:57;;;;;;;3.10;2.10;;;12.80;99.90;;;;;;5027377;28;20029;-75
2021/12/30 00:16:23;;;;;;;3.03;1.98;;;12.70;99.90;;;;;;5024146;28;20025;-75
2021/12/30 00:18:49;;;;;;;4.32;2.47;;;12.50;99.90;;;;;;5027811;28;20502;-75
2021/12/30 00:21:16;;;;;;;3.58;2.22;;;12.50;99.90;;;;;;5026389;28;20037;-75
2021/12/30 00:23:42;;;;;;;3.55;1.88;;;12.50;99.90;;;;;;5029998;28;20104;-76
2021/12/30 00:26:08;;;;;;;2.13;1.52;;;12.60;99.90;;;;;;5027158;28;20029;-75
2021/12/30 00:28:34;;;;;;;2.83;1.92;;;12.60;99.90;;;;;;5028440;28;20018;-75
2021/12/30 00:31:00;;;;;;;4.43;2.55;;;12.50;99.90;;;;;;5023231;28;20064;-75
2021/12/30 00:33:27;;;;;;;4.35;2.25;;;12.40;99.90;;;;;;5029403;28;20068;-75
2021/12/30 00:35:54;;;;;;;5.45;2.40;;;12.50;99.90;;;;;;5029937;28;20022;-75
2021/12/30 00:38:20;;;;;;;3.83;2.08;;;12.40;99.90;;;;;;5025897;28;20018;-75
2021/12/30 00:40:47;;;;;;;4.13;2.65;;;12.40;99.90;;;;;;5025753;28;20028;-75
2021/12/30 00:43:13;;;;;;;3.65;2.08;;;12.50;99.90;;;;;;5028040;28;20163;-75
2021/12/30 00:45:39;;;;;;;3.33;2.63;;;12.50;99.90;;;;;;5028508;28;20581;-75
2021/12/30 00:48:05;;;;;;;6.03;2.55;;;12.50;99.90;;;;;;5028865;28;20112;-75
2021/12/30 00:50:32;;;;;;;2.45;2.00;;;12.30;99.90;;;;;;5027590;28;20033;-75
2021/12/30 00:53:00;;;;;;;3.65;2.20;;;12.10;99.90;;;;;;5027849;28;20136;-75
2021/12/30 00:55:26;;;;;;;2.58;1.83;;;11.90;99.90;;;;;;5027861;28;20171;-75
2021/12/30 00:57:52;;;;;;;2.22;1.90;;;12.00;99.90;;;;;;5028237;28;20104;-75
2021/12/30 01:00:19;;;;;;;3.20;2.25;;;11.90;99.90;;;;;;5027756;28;20602;-75
2021/12/30 01:02:45;;;;;;;4.30;2.15;;;11.70;99.90;;;;;;5029852;28;20017;-75
2021/12/30 01:05:11;;;;;;;1.70;1.58;;;11.70;99.90;;;;;;5028020;28;20427;-75
2021/12/30 01:07:38;;;;;;;5.40;2.00;;;11.70;99.90;;;;;;5027728;28;20029;-75
2021/12/30 01:10:07;;;;;;;4.35;1.70;;;11.80;99.90;;;;;;5027296;28;20025;-75
2021/12/30 01:12:33;;;;;;;2.33;1.70;;;11.90;99.90;;;;;;5027757;28;20064;-75
2021/12/30 01:15:00;;;;;;;2.05;1.58;;;11.60;99.90;;;;;;5028442;28;20080;-75
2021/12/30 01:17:43;;;;;;;2.05;1.80;;;11.30;99.90;;;;;;5027747;28;20021;-75
2021/12/30 01:20:13;;;;;;;2.00;1.48;;;11.40;99.90;;;;;;5025751;28;20017;-75
2021/12/30 01:22:39;;;;;;;2.35;1.70;;;11.40;99.90;;;;;;5027040;28;20414;-76
2021/12/30 01:25:07;;;;;;;3.13;1.65;;;11.30;99.90;;;;;;5026780;28;20748;-75
2021/12/30 01:27:36;;;;;;;3.15;1.58;;;11.40;99.90;;;;;;5027802;28;20033;-75
2021/12/30 01:30:04;;;;;;;3.50;1.55;;;11.50;99.90;;;;;;5025117;28;20037;-75
2021/12/30 01:32:30;;;;;;;1.40;1.30;;;11.50;99.90;;;;;;5026050;28;20518;-75
2021/12/30 01:34:56;;;;;;;1.58;1.40;;;11.30;99.90;;;;;;5023977;28;20037;-75
2021/12/30 01:37:23;;;;;;;1.52;1.42;;;11.40;99.90;;;;;;5027553;28;20406;-75
2021/12/30 01:39:49;;;;;;;3.38;1.48;;;11.20;99.90;;;;;;5026543;28;20025;-76
2021/12/30 01:42:15;;;;;;;1.88;1.33;;;11.20;99.90;;;;;;5027433;28;20026;-75
2021/12/30 01:44:41;;;;;;;2.10;1.40;;;11.20;99.90;;;;;;5027324;28;20140;-76
2021/12/30 01:47:08;;;;;;;1.85;1.60;;;11.00;99.90;;;;;;5027291;28;20117;-76
2021/12/30 01:49:33;;;;;;;2.13;1.27;;;10.90;99.90;;;;;;5024186;28;20107;-75
2021/12/30 01:52:00;;;;;;;1.90;1.30;;;11.00;99.90;;;;;;5027454;28;20080;-75
2021/12/30 01:54:27;;;;;;;2.42;1.25;;;11.00;99.90;;;;;;5025294;28;28368;-75
2021/12/30 01:56:56;;;;;;;2.65;1.58;;;11.00;99.90;;;;;;5025371;28;20033;-75
2021/12/30 01:59:23;;;;;;;2.47;1.42;;;11.10;99.90;;;;;;5022457;28;20048;-75
2021/12/30 02:01:56;;;;;;;2.10;1.73;;;11.10;99.90;;;;;;5024200;28;20021;-75
2021/12/30 02:04:23;;;;;;;1.83;1.42;;;11.10;99.90;;;;;;5023666;28;20030;-76
2021/12/30 02:06:49;;;;;;;2.33;1.52;;;11.10;99.90;;;;;;5026776;28;20022;-75
2021/12/30 02:09:16;;;;;;;3.17;1.80;;;11.10;99.90;;;;;;5028313;28;20406;-75
2021/12/30 02:11:42;;;;;;;2.53;1.80;;;11.00;99.90;;;;;;5027457;28;20492;-75
2021/12/30 02:14:07;;;;;;;2.15;1.50;;;10.80;99.90;;;;;;5028122;28;20047;-75
2021/12/30 02:16:33;;;;;;;1.70;1.40;;;10.60;99.90;;;;;;5026501;28;20025;-76
2021/12/30 02:18:59;;;;;;;1.58;1.40;;;10.80;99.90;;;;;;5028719;28;20036;-75
2021/12/30 02:21:24;;;;;;;2.17;1.30;;;10.80;99.90;;;;;;5029428;28;20501;-75
2021/12/30 02:23:50;;;;;;;2.38;1.58;;;10.60;99.90;;;;;;5029060;28;20505;-75
2021/12/30 02:26:18;;;;;;;1.25;1.15;;;10.50;99.90;;;;;;5027136;28;20033;-75
2021/12/30 02:28:44;;;;;;;1.48;1.38;;;10.50;99.90;;;;;;5028734;28;20487;-75
2021/12/30 02:31:14;;;;;;;1.33;1.10;;;10.40;99.90;;;;;;5026885;28;20083;-75
2021/12/30 02:33:42;;;;;;;1.98;1.40;;;10.50;99.90;;;;;;5029356;28;20033;-75
2021/12/30 02:36:08;;;;;;;3.33;1.60;;;10.30;99.90;;;;;;5030390;28;20024;-75
2021/12/30 02:38:35;;;;;;;2.42;1.50;;;10.50;99.90;;;;;;5062278;28;20120;-75
2021/12/30 02:41:02;;;;;;;2.33;1.55;;;10.50;99.90;;;;;;5027051;28;20110;-75
2021/12/30 02:43:31;;;;;;;4.68;1.70;;;10.60;99.90;;;;;;5028144;28;20044;-75
2021/12/30 02:45:58;;;;;;;6.38;2.33;;;10.60;99.90;;;;;;5027904;28;20089;-75
2021/12/30 02:48:27;;;;;;;4.82;2.47;;;10.50;99.90;;;;;;5026162;28;20036;-75
2021/12/30 02:50:57;;;;;;;4.10;2.40;;;10.40;99.90;;;;;;5030084;28;20021;-76
2021/12/30 02:53:22;;;;;;;26.25;3.20;;;10.50;99.90;;;;;;5028330;28;20033;-76
2021/12/30 02:55:49;;;;;;;6.55;3.08;;;10.40;99.90;;;;;;5028977;28;20582;-75
2021/12/30 02:58:15;;;;;;;4.60;2.30;;;10.30;99.90;;;;;;5028189;28;20033;-75
2021/12/30 03:00:42;;;;;;;5.07;2.97;;;10.30;99.90;;;;;;5028321;28;26783;-75
2021/12/30 03:03:16;;;;;;;4.75;2.60;;;10.30;99.90;;;;;;5030297;28;20067;-75
2021/12/30 03:05:42;;;;;;;2.53;2.30;;;10.10;99.90;;;;;;5030443;28;20025;-75
2021/12/30 03:08:07;;;;;;;3.70;2.85;;;10.10;99.90;;;;;;5027602;28;20412;-75
2021/12/30 03:10:33;;;;;;;3.65;2.47;;;10.10;99.90;;;;;;5028555;28;20109;-75
2021/12/30 03:13:05;;;;;;;3.72;2.63;;;10.10;99.90;;;;;;5024942;28;20291;-75
2021/12/30 03:15:32;;;;;;;;;;;10.00;99.90;;;;;;5026700;28;20018;-75
2021/12/30 03:17:58;;;;;;;5.05;2.60;;;10.10;99.90;;;;;;5029544;28;19911;-75
2021/12/30 03:20:24;;;;;;;2.65;2.20;;;9.90;99.90;;;;;;5025177;28;20406;-75
2021/12/30 03:22:49;;;;;;;5.13;2.25;;;9.90;99.90;;;;;;5030070;28;20029;-75
2021/12/30 03:25:16;;;;;;;3.85;2.15;;;9.70;99.90;;;;;;5027828;28;20041;-76
2021/12/30 03:27:44;;;;;;;2.60;1.92;;;9.50;99.90;;;;;;5028190;28;20029;-75
2021/12/30 03:30:14;;;;;;;3.15;2.00;;;9.50;99.90;;;;;;5026705;28;20051;-75
2021/12/30 03:32:40;;;;;;;1.90;1.77;;;9.80;99.90;;;;;;5030300;28;20025;-75
2021/12/30 03:35:06;;;;;;;2.08;1.67;;;9.80;99.90;;;;;;5028526;28;20031;-75
2021/12/30 03:37:32;;;;;;;2.78;2.13;;;9.50;99.90;;;;;;5026332;28;20021;-75
2021/12/30 03:39:58;;;;;;;2.53;1.85;;;9.60;99.90;;;;;;5026012;28;20029;-75
2021/12/30 03:42:24;;;;;;;1.95;1.70;;;9.70;99.90;;;;;;5024861;28;20021;-75
2021/12/30 03:44:52;;;;;;;2.33;1.90;;;9.70;99.90;;;;;;5031120;28;20045;-75
2021/12/30 03:47:19;;;;;;;1.88;1.50;;;9.70;99.90;;;;;;5029228;28;20574;-75
2021/12/30 03:49:46;;;;;;;2.22;1.95;;;9.70;99.90;;;;;;5025886;28;20029;-75
2021/12/30 03:52:27;;;;;;;2.22;1.77;;;9.50;99.90;;;;;;5027875;28;20025;-75
2021/12/30 03:54:52;;;;;;;1.98;1.77;;;9.50;99.90;;;;;;5026470;28;20026;-75
2021/12/30 03:57:18;;;;;;;1.88;1.27;;;9.60;99.90;;;;;;5028182;28;20030;-75
2021/12/30 03:59:44;;;;;;;2.22;1.83;;;9.60;99.90;;;;;;5029012;28;20087;-75
2021/12/30 04:02:09;;;;;;;1.75;1.40;;;9.60;99.90;;;;;;5025118;28;20091;-75
2021/12/30 04:04:35;;;;;;;2.25;1.70;;;9.70;99.90;;;;;;5026676;28;20037;-75
2021/12/30 04:07:02;;;;;;;1.65;1.27;;;9.70;99.90;;;;;;5026998;28;20216;-75
2021/12/30 04:09:27;;;;;;;1.45;1.35;;;9.50;99.90;;;;;;5026660;28;20045;-75
2021/12/30 04:11:53;;;;;;;1.48;1.38;;;9.30;99.90;;;;;;5027082;28;20404;-76
2021/12/30 04:14:19;;;;;;;1.45;1.35;;;9.20;99.90;;;;;;5027843;28;20032;-75
2021/12/30 04:16:45;;;;;;;5.63;2.53;;;9.40;99.90;;;;;;5026627;28;20025;-75
2021/12/30 04:19:11;;;;;;;1.92;1.23;;;9.50;99.90;;;;;;5025558;28;20072;-75
2021/12/30 04:21:37;;;;;;;1.60;1.38;;;9.40;99.90;;;;;;5027118;28;20455;-75
2021/12/30 04:24:03;;;;;;;2.65;1.13;;;9.20;99.90;;;;;;5025247;28;20344;-75
2021/12/30 04:26:28;;;;;;;1.63;1.33;;;9.20;99.90;;;;;;5026075;28;20091;-75
2021/12/30 04:28:54;;;;;;;2.05;1.63;;;9.20;99.90;;;;;;5026252;28;20479;-75
2021/12/30 04:31:20;;;;;;;1.55;1.20;;;9.40;99.90;;;;;;5026091;28;20189;-75
2021/12/30 04:33:45;;;;;;;1.70;1.60;;;9.40;99.90;;;;;;5025557;28;20083;-75
2021/12/30 04:36:11;;;;;;;1.17;0.95;;;9.20;99.90;;;;;;5025739;28;20122;-75
2021/12/30 04:38:37;;;;;;;1.25;1.15;;;9.10;99.90;;;;;;5024387;28;20025;-75
2021/12/30 04:41:05;;;;;;;1.75;1.08;;;9.20;99.90;;;;;;5024488;28;20030;-75
2021/12/30 04:43:31;;;;;;;2.08;1.38;;;9.30;99.90;;;;;;5025571;28;20495;-75
2021/12/30 04:46:00;;;;;;;3.55;2.03;;;9.20;99.90;;;;;;5025430;28;20046;-75
2021/12/30 04:48:25;;;;;;;1.60;1.13;;;9.20;99.90;;;;;;5024931;28;20022;-75
2021/12/30 04:50:51;;;;;;;1.20;1.10;;;9.10;99.90;;;;;;5028973;28;20022;-75
2021/12/30 04:53:18;;;;;;;1.25;1.10;;;9.20;99.90;;;;;;5024216;28;20029;-76
2021/12/30 04:55:44;;;;;;;1.58;1.20;;;9.30;99.90;;;;;;5025958;28;20018;-75
2021/12/30 04:58:11;;;;;;;1.30;1.20;;;9.20;99.90;;;;;;5025646;28;20056;-75
2021/12/30 05:00:37;;;;;;;1.90;1.35;;;9.00;99.90;;;;;;5025833;28;20029;-75
2021/12/30 05:05:32;;;;;;;0.90;0.85;;;8.80;99.90;;;;;;5026966;28;20025;-75
2021/12/30 05:07:58;;;;;;;1.48;1.20;;;8.90;99.90;;;;;;5023845;28;20029;-75
2021/12/30 05:10:23;;;;;;;1.10;1.00;;;8.90;99.90;;;;;;5023268;28;20041;-75
2021/12/30 05:12:49;;;;;;;2.15;1.58;;;9.00;99.90;;;;;;5024666;28;20445;-75
2021/12/30 05:15:15;;;;;;;2.65;1.20;;;9.00;99.90;;;;;;5025619;28;20510;-75
2021/12/30 05:17:41;;;;;;;1.20;1.10;;;9.00;99.90;;;;;;5028581;28;20025;-75
2021/12/30 05:20:09;;;;;;;3.47;1.30;;;9.00;99.90;;;;;;5021897;28;20483;-75
2021/12/30 05:22:34;;;;;;;1.80;1.60;;;8.90;99.90;;;;;;5024326;28;20552;-75
2021/12/30 05:25:02;;;;;;;1.13;1.02;;;9.00;99.90;;;;;;5024749;28;20029;-75
2021/12/30 05:27:28;;;;;;;1.38;1.00;;;9.00;99.90;;;;;;5025128;28;20038;-75
2021/12/30 05:29:54;;;;;;;1.27;1.10;;;9.10;99.90;;;;;;5027574;28;20522;-75
2021/12/30 05:32:19;;;;;;;1.50;1.35;;;9.00;99.90;;;;;;5026159;28;20136;-75
2021/12/30 05:34:45;;;;;;;1.60;0.90;;;9.10;99.90;;;;;;5026835;28;20017;-75
2021/12/30 05:37:13;;;;;;;1.38;1.15;;;9.10;99.90;;;;;;5023496;28;20483;-75
2021/12/30 05:39:41;;;;;;;3.17;1.85;;;9.20;99.90;;;;;;5022373;28;20037;-75
2021/12/30 05:42:08;;;;;;;1.10;1.02;;;9.10;99.90;;;;;;5028115;28;20021;-75
2021/12/30 05:44:33;;;;;;;1.38;1.05;;;9.00;99.90;;;;;;5031465;28;20064;-74
2021/12/30 05:46:59;;;;;;;1.45;1.08;;;9.00;99.90;;;;;;5030438;28;20029;-75
2021/12/30 05:49:25;;;;;;;1.02;1.00;;;9.00;99.90;;;;;;5026398;28;20510;-75
2021/12/30 05:51:50;;;;;;;1.13;1.02;;;9.00;99.90;;;;;;5029995;28;20036;-75
2021/12/30 05:54:16;;;;;;;1.08;0.90;;;9.10;99.90;;;;;;5028283;28;20032;-75
2021/12/30 05:56:42;;;;;;;1.05;0.95;;;9.10;99.90;;;;;;5032136;28;20483;-75
2021/12/30 05:59:08;;;;;;;1.60;0.95;;;9.00;99.90;;;;;;5028508;28;20029;-75
2021/12/30 06:01:33;;;;;;;1.08;0.95;;;8.90;99.90;;;;;;5026623;28;20033;-75
2021/12/30 06:03:59;;;;;;;1.45;1.10;;;8.80;99.90;;;;;;5028345;28;20054;-75
2021/12/30 06:06:25;;;;;;;0.90;0.85;;;8.90;99.90;;;;;;5031470;28;20546;-75
2021/12/30 06:08:53;;;;;;;1.27;1.17;;;8.80;99.90;;;;;;5028843;28;20040;-75
2021/12/30 06:11:18;;;;;;;1.52;1.25;;;8.90;99.90;;;;;;5029335;28;20022;-76
2021/12/30 06:13:44;;;;;;;1.63;0.90;;;8.90;99.90;;;;;;5026455;28;20045;-75
2021/12/30 06:16:10;;;;;;;0.90;0.90;;;8.90;99.90;;;;;;5029233;28;20032;-76
2021/12/30 06:18:35;;;;;;;1.35;1.20;;;9.00;99.90;;;;;;5027297;28;20554;-75
2021/12/30 06:21:01;;;;;;;1.10;1.00;;;9.00;99.90;;;;;;5030702;28;20120;-75
2021/12/30 06:23:27;;;;;;;1.17;1.08;;;9.00;99.90;;;;;;5027551;28;20543;-75
2021/12/30 06:25:52;;;;;;;1.20;0.95;;;8.90;99.90;;;;;;5028228;28;20096;-75
2021/12/30 06:28:18;;;;;;;1.13;1.02;;;8.90;99.90;;;;;;5026346;28;20030;-75
2021/12/30 06:30:44;;;;;;;1.20;1.10;;;8.90;99.90;;;;;;5023185;28;20021;-75
2021/12/30 06:33:09;;;;;;;1.00;0.95;;;9.00;99.90;;;;;;5029578;28;20095;-75
2021/12/30 06:35:35;;;;;;;3.30;0.98;;;9.00;99.90;;;;;;5029463;28;20053;-75
2021/12/30 06:38:02;;;;;;;0.98;0.90;;;8.90;99.90;;;;;;5028227;28;20022;-75
2021/12/30 06:40:28;;;;;;;1.17;0.82;;;8.90;99.90;;;;;;5028294;28;20022;-75
2021/12/30 06:42:54;;;;;;;1.50;1.40;;;9.00;99.90;;;;;;5029304;28;20545;-75
2021/12/30 06:45:20;;;;;;;1.80;1.13;;;9.00;99.90;;;;;;5026154;28;20065;-75
2021/12/30 06:47:47;;;;;;;1.20;1.10;;;8.90;99.90;;;;;;5028551;28;20021;-76
2021/12/30 06:50:14;;;;;;;1.27;1.17;;;8.80;99.90;;;;;;5023841;28;20065;-75
2021/12/30 06:52:41;;;;;;;2.25;0.90;;;8.60;99.90;;;;;;5026269;28;20131;-75
2021/12/30 06:55:08;;;;;;;1.40;1.30;;;8.70;99.90;;;;;;5027489;28;20036;-76
2021/12/30 06:57:35;;;;;;;1.38;1.00;;;8.80;99.90;;;;;;5026566;28;28468;-76
2021/12/30 07:00:02;;;;;;;1.60;1.42;;;8.80;99.90;;;;;;5029575;28;20077;-76
2021/12/30 07:02:28;;;;;;;1.60;1.05;;;8.90;99.90;;;;;;5028755;28;20030;-75
2021/12/30 07:04:54;;;;;;;1.27;1.05;;;8.80;99.90;;;;;;5025382;28;20052;-75
2021/12/30 07:07:19;;;;;;;1.50;1.20;;;9.00;99.90;;;;;;5024922;28;20041;-75
2021/12/30 07:09:47;;;;;;;2.38;1.38;;;9.00;99.90;;;;;;5027006;28;20052;-75
2021/12/30 07:12:13;;;;;;;1.70;1.60;;;8.80;99.90;;;;;;5028905;28;20041;-75
2021/12/30 07:14:39;;;;;;;1.70;1.30;;;8.70;99.90;;;;;;5028129;28;20109;-75
2021/12/30 07:17:04;;;;;;;1.20;1.10;;;8.70;99.90;;;;;;5025872;28;20057;-75
2021/12/30 07:19:30;;;;;;;1.17;1.10;;;8.70;99.90;;;;;;5027330;28;20071;-75
2021/12/30 07:21:56;;;;;;;1.67;1.40;;;8.70;99.90;;;;;;5028378;28;20547;-75
2021/12/30 07:24:21;;;;;;;2.25;1.75;;;8.80;99.90;;;;;;5025606;28;20025;-76
2021/12/30 07:26:51;;;;;;;1.58;1.48;;;8.90;99.90;;;;;;5028379;28;20453;-75
2021/12/30 07:29:17;;;;;;;1.63;1.48;;;9.00;99.90;;;;;;5026892;28;20070;-75
2021/12/30 07:31:43;;;;;;;1.77;1.48;;;9.10;99.90;;;;;;5027988;28;20104;-76
2021/12/30 07:34:08;;;;;;;2.30;1.30;;;9.00;99.90;;;;;;5026769;28;20028;-75
2021/12/30 07:36:34;;;;;;;2.38;1.65;;;9.00;99.90;;;;;;5026781;28;20026;-75
2021/12/30 07:39:00;;;;;;;2.60;2.00;;;8.90;99.90;;;;;;5028916;28;20425;-75
2021/12/30 07:41:26;;;;;;;3.42;2.25;;;8.80;99.90;;;;;;5029083;28;20483;-75
2021/12/30 07:43:51;;;;;;;2.30;2.08;;;8.90;99.90;;;;;;5023866;28;20100;-75
2021/12/30 07:46:17;;;;;;;4.32;2.10;;;9.00;99.90;;;;;;5025402;28;20088;-76
2021/12/30 07:48:43;;;;;;;7.68;2.28;;;8.80;99.90;;;;;;5024340;28;20033;-76
2021/12/30 07:51:09;;;;;;;3.97;2.50;;;8.90;99.90;;;;;;5027606;28;20029;-76
2021/12/30 07:53:34;;;;;;;5.45;2.30;;;9.00;99.90;;;;;;5025086;28;20025;-75
2021/12/30 07:56:02;;;;;;;8.50;3.20;;;9.10;99.90;;;;;;5028073;28;20033;-75
2021/12/30 07:58:28;;;;;;;3.08;2.33;;;9.00;99.90;;;;;;5025144;28;20064;-75
2021/12/30 08:00:54;;;;;;;3.10;2.40;;;8.90;99.90;;;;;;5025837;28;20076;-76
2021/12/30 08:03:19;;;;;;;2.75;2.38;;;9.10;99.90;;;;;;5027760;28;20026;-76
2021/12/30 08:05:45;;;;;;;3.25;2.47;;;9.20;99.90;;;;;;5025864;28;20434;-76
2021/12/30 08:08:11;;;;;;;3.53;2.45;;;9.00;99.90;;;;;;5025341;28;20022;-76
2021/12/30 08:10:37;;;;;;;3.30;2.65;;;9.20;99.90;;;;;;5026092;28;20033;-76
2021/12/30 08:13:03;;;;;;;4.50;2.33;;;9.30;99.90;;;;;;5024588;28;20083;-76
2021/12/30 08:15:29;;;;;;;2.78;2.05;;;9.20;99.90;;;;;;5025241;28;20463;-76
2021/12/30 08:17:55;;;;;;;4.80;2.28;;;9.00;99.90;;;;;;5028886;28;20057;-76
2021/12/30 08:20:24;;;;;;;2.85;2.30;;;9.00;99.90;;;;;;5027009;28;20049;-76
2021/12/30 08:22:51;;;;;;;3.22;2.72;;;9.20;99.90;;;;;;5025395;28;20029;-76
2021/12/30 08:25:18;;;;;;;3.13;2.55;;;9.40;99.90;;;;;;5025204;28;20040;-76
2021/12/30 08:27:45;;;;;;;4.40;2.72;;;9.50;99.90;;;;;;5027304;28;20095;-76
2021/12/30 08:30:15;;;;;;;3.13;2.45;;;9.40;99.90;;;;;;5023707;28;20037;-76
2021/12/30 08:32:41;;;;;;;4.18;2.47;;;9.20;99.90;;;;;;5030052;28;20021;-76
2021/12/30 08:35:09;;;;;;;5.40;2.60;;;9.20;99.90;;;;;;5024756;28;20052;-76
2021/12/30 08:37:35;;;;;;;10.38;2.92;;;9.30;99.90;;;;;;5025582;28;20025;-76
2021/12/30 08:40:04;;;;;;;4.13;2.63;;;9.30;99.90;;;;;;5027656;28;20548;-76
2021/12/30 08:42:30;;;;;;;4.32;2.35;;;9.30;99.90;;;;;;5024758;28;20026;-76
2021/12/30 08:44:58;;;;;;;4.35;2.88;;;9.40;99.90;;;;;;5027691;28;20574;-75
2021/12/30 08:47:25;;;;;;;35.53;3.63;;;9.20;99.90;;;;;;5024708;28;20052;-76
2021/12/30 08:49:53;;;;;;;6.60;3.40;;;9.00;99.90;;;;;;5023676;28;20028;-75
2021/12/30 08:52:22;;;;;;;5.70;3.40;;;9.10;99.90;;;;;;5023895;28;20052;-76
2021/12/30 08:54:47;;;;;;;4.57;2.88;;;9.10;99.90;;;;;;5024204;28;20041;-76
2021/12/30 08:57:14;;;;;;;4.30;2.90;;;9.20;99.90;;;;;;5026278;28;20439;-76
2021/12/30 08:59:40;;;;;;;4.55;2.28;;;9.30;99.90;;;;;;5025546;28;20040;-76
2021/12/30 09:02:07;;;;;;;3.95;2.60;;;9.30;99.90;;;;;;5028836;28;20254;-76
2021/12/30 09:04:34;;;;;;;2.80;2.10;;;9.40;99.90;;;;;;5023701;28;20119;-75
2021/12/30 09:07:01;;;;;;;3.38;2.45;;;9.40;99.90;;;;;;5026855;28;20025;-76
2021/12/30 09:09:27;;;;;;;2.20;1.92;;;9.50;99.90;;;;;;5025283;28;20033;-75
2021/12/30 09:11:53;;;;;;;1.92;1.63;;;9.50;99.90;;;;;;5029403;28;20018;-76
2021/12/30 09:14:19;;;;;;;1.50;1.40;;;9.50;99.90;;;;;;5025737;28;20021;-76
2021/12/30 09:16:45;;;;;;;1.95;1.48;;;9.70;99.90;;;;;;5025422;28;20017;-76
2021/12/30 09:19:11;;;;;;;1.25;1.00;;;9.80;99.90;;;;;;5026368;28;20021;-76
2021/12/30 09:21:40;;;;;;;1.40;1.02;;;9.90;99.90;;;;;;5022801;28;20565;-76
2021/12/30 09:24:08;;;;;;;2.78;1.52;;;9.90;99.90;;;;;;5028194;28;20029;-76
2021/12/30 09:26:34;;;;;;;2.58;1.75;;;10.10;99.90;;;;;;5024746;28;20022;-76
2021/12/30 09:29:00;;;;;;;2.17;1.33;;;10.10;99.90;;;;;;5025557;28;20033;-76
2021/12/30 09:31:28;;;;;;;1.60;1.33;;;10.00;99.90;;;;;;5024298;28;20532;-76
2021/12/30 09:33:55;;;;;;;5.07;1.38;;;10.10;99.90;;;;;;5026418;28;20049;-76
2021/12/30 09:36:22;;;;;;;4.85;1.73;;;10.20;99.90;;;;;;5024523;28;20014;-76
2021/12/30 09:38:48;;;;;;;1.45;1.35;;;10.20;99.90;;;;;;5024067;28;20140;-76
2021/12/30 09:41:14;;;;;;;3.38;1.70;;;10.20;99.90;;;;;;5019449;28;20586;-76
2021/12/30 09:43:40;;;;;;;1.90;1.70;;;10.30;99.90;;;;;;5023758;28;20059;-76
2021/12/30 09:46:06;;;;;;;1.98;1.45;;;10.40;99.90;;;;;;5022119;28;20088;-76
2021/12/30 09:48:31;;;;;;;2.97;1.40;;;10.50;99.90;;;;;;5023735;28;20068;-76
2021/12/30 09:50:58;;;;;;;1.70;1.60;;;10.40;99.90;;;;;;5027708;28;20502;-76
2021/12/30 09:53:25;;;;;;;1.67;1.40;;;10.50;99.90;;;;;;5023547;28;20033;-76
2021/12/30 09:55:55;;;;;;;2.00;1.70;;;10.60;99.90;;;;;;5025619;28;20494;-76
2021/12/30 09:58:21;;;;;;;1.88;1.48;;;10.70;99.90;;;;;;5024986;28;20071;-76
2021/12/30 10:00:48;;;;;;;1.77;1.55;;;10.70;99.90;;;;;;5025234;28;20034;-76
2021/12/30 10:03:14;;;;;;;3.80;1.63;;;10.80;99.90;;;;;;5026815;28;20025;-76
2021/12/30 10:05:41;;;;;;;1.98;1.40;;;10.60;99.90;;;;;;5027670;28;20029;-76
2021/12/30 10:08:26;;;;;;;2.45;1.75;;;10.60;99.90;;;;;;5025636;28;20029;-76
2021/12/30 10:10:55;;;;;;;2.50;1.88;;;10.70;99.90;;;;;;5024848;28;20069;-76
2021/12/30 10:13:29;;;;;;;2.00;1.77;;;10.70;99.90;;;;;;5023547;28;20033;-76
2021/12/30 10:16:01;;;;;;;7.28;2.00;;;10.80;99.90;;;;;;5031358;28;20021;-76
2021/12/30 10:18:52;;;;;;;4.20;1.70;;;10.80;99.90;;;;;;5025908;28;20034;-76
2021/12/30 10:21:22;;;;;;;2.40;2.08;;;10.60;99.90;;;;;;5022997;28;20049;-76
2021/12/30 10:23:50;;;;;;;1.63;1.40;;;10.80;99.90;;;;;;5058423;28;20410;-76
2021/12/30 10:26:17;;;;;;;3.72;1.65;;;10.90;99.90;;;;;;5024261;28;20048;-76
2021/12/30 10:28:43;;;;;;;2.78;1.95;;;10.90;99.90;;;;;;5027156;28;20064;-77
2021/12/30 10:31:12;;;;;;;4.53;1.63;;;11.00;99.90;;;;;;5028879;28;20029;-76
2021/12/30 10:33:48;;;;;;;1.65;1.45;;;10.90;99.90;;;;;;5028970;28;20033;-76
2021/12/30 10:36:19;;;;;;;1.50;1.40;;;11.00;99.90;;;;;;5028106;28;20164;-76
2021/12/30 10:38:45;;;;;;;1.85;1.75;;;11.00;99.90;;;;;;5026702;28;20498;-76
2021/12/30 10:41:10;;;;;;;2.22;1.83;;;11.00;99.90;;;;;;5024607;28;20029;-76
2021/12/30 10:43:46;;;;;;;1.88;1.10;;;10.90;99.90;;;;;;5027834;28;20026;-77
2021/12/30 10:46:24;;;;;;;2.80;2.03;;;11.10;99.90;;;;;;5022961;28;20045;-76
2021/12/30 10:49:10;;;;;;;1.33;1.23;;;11.30;99.90;;;;;;5027967;28;20029;-76
2021/12/30 10:51:38;;;;;;;1.98;1.70;;;11.40;99.90;;;;;;5043326;28;20033;-76
2021/12/30 10:54:13;;;;;;;2.83;2.15;;;11.50;99.90;;;;;;5028087;28;20573;-77
2021/12/30 10:56:47;;;;;;;2.88;2.13;;;11.60;99.90;;;;;;5030783;28;20511;-76
2021/12/30 10:59:24;;;;;;;2.60;2.38;;;11.60;99.90;;;;;;5027259;28;20025;-77
2021/12/30 11:01:52;;;;;;;4.68;2.05;;;11.70;99.90;;;;;;5029037;28;20025;-76
2021/12/30 11:04:19;;;;;;;1.80;1.63;;;11.70;99.90;;;;;;5028204;28;20021;-76
2021/12/30 11:06:46;;;;;;;1.80;1.70;;;11.70;99.90;;;;;;5026996;28;20088;-77
2021/12/30 11:09:20;;;;;;;3.00;2.00;;;11.80;99.90;;;;;;5028122;28;20022;-77
2021/12/30 11:11:53;;;;;;;3.20;1.83;;;11.90;99.90;;;;;;5029718;28;20040;-78
2021/12/30 11:14:26;;;;;;;1.88;1.77;;;12.00;99.90;;;;;;5026081;28;20021;-77
2021/12/30 11:16:54;;;;;;;2.90;2.05;;;12.00;99.90;;;;;;5027299;28;20025;-78
2021/12/30 11:19:23;;;;;;;2.67;2.28;;;12.00;99.90;;;;;;5028253;28;20072;-78
2021/12/30 11:21:51;;;;;;;2.60;1.80;;;12.00;99.90;;;;;;5027940;28;20051;-78
2021/12/30 11:24:19;;;;;;;2.78;2.05;;;12.00;99.90;;;;;;5028469;28;20052;-78
2021/12/30 11:26:44;;;;;;;2.60;2.38;;;11.70;99.90;;;;;;5025246;28;20025;-77
2021/12/30 11:29:10;;;;;;;2.67;2.28;;;11.70;99.90;;;;;;5028793;28;20565;-77
2021/12/30 11:31:36;;;;;;;4.03;2.47;;;11.80;99.90;;;;;;5028378;28;20057;-77
2021/12/30 11:34:03;;;;;;;3.38;2.47;;;11.90;99.90;;;;;;5022985;28;20110;-77
2021/12/30 11:36:29;;;;;;;3.72;2.35;;;12.00;99.90;;;;;;5025461;28;21566;-77
2021/12/30 11:38:57;;;;;;;3.33;2.40;;;12.10;99.90;;;;;;5028785;28;20049;-77
2021/12/30 11:41:25;;;;;;;4.47;2.80;;;12.10;99.90;;;;;;5025469;28;20175;-77
2021/12/30 11:43:50;;;;;;;5.63;3.30;;;12.10;99.90;;;;;;5026953;28;20048;-77
2021/12/30 11:46:50;;;;;;;2.88;2.47;;;12.20;99.90;;;;;;5024138;28;20466;-77
2021/12/30 11:49:15;;;;;;;3.92;2.45;;;12.20;99.90;;;;;;5018337;28;20038;-78
2021/12/30 11:51:51;;;;;;;4.20;2.55;;;12.20;99.90;;;;;;5026075;28;20418;-77
2021/12/30 11:54:42;;;;;;;2.97;2.45;;;12.10;99.90;;;;;;5024128;28;20029;-78
2021/12/30 11:57:31;;;;;;;8.50;2.92;;;12.00;99.90;;;;;;5029169;28;20079;-77
2021/12/30 12:00:19;;;;;;;4.75;3.00;;;11.80;99.90;;;;;;5028425;28;20537;-77
2021/12/30 12:02:45;;;;;;;3.85;2.35;;;11.80;99.90;;;;;;5029442;28;20503;-77
2021/12/30 12:05:41;;;;;;;4.28;2.60;;;12.00;99.90;;;;;;5040026;28;20036;-77
2021/12/30 12:08:12;;;;;;;3.25;2.60;;;12.10;99.90;;;;;;5024007;28;20083;-78
2021/12/30 12:10:40;;;;;;;4.32;3.10;;;12.20;99.90;;;;;;5024551;28;20037;-77
2021/12/30 12:13:31;;;;;;;5.75;3.97;;;12.30;99.90;;;;;;5024910;28;20021;-77
2021/12/30 12:15:59;;;;;;;6.13;3.50;;;12.40;99.90;;;;;;5024525;28;20037;-77
2021/12/30 12:18:26;;;;;;;4.63;3.85;;;12.60;99.90;;;;;;5027077;28;20030;-78
2021/12/30 12:20:59;;;;;;;6.60;4.07;;;12.60;99.90;;;;;;5030010;28;20026;-78
2021/12/30 12:23:42;;;;;;;5.55;4.07;;;12.40;99.90;;;;;;5027320;28;20104;-78
2021/12/30 12:26:22;;;;;;;8.70;4.13;;;12.50;99.90;;;;;;5023626;28;20059;-78
2021/12/30 12:28:48;;;;;;;6.68;4.82;;;12.60;99.90;;;;;;5025871;28;20025;-78
2021/12/30 12:31:14;;;;;;;7.47;4.85;;;12.60;99.90;;;;;;5027133;28;20517;-78
2021/12/30 12:33:42;;;;;;;7.70;5.82;;;12.70;99.90;;;;;;5027864;28;20032;-78
2021/12/30 12:36:34;;;;;;;7.18;4.35;;;12.70;99.90;;;;;;5028621;28;20017;-78
2021/12/30 12:38:59;;;;;;;;;;;12.80;99.90;;;;;;5028601;28;20037;-78
2021/12/30 12:41:27;;;;;;;6.75;4.50;;;12.90;99.90;;;;;;5026555;28;20002;-78
2021/12/30 12:43:55;;;;;;;5.40;3.97;;;12.80;99.90;;;;;;5025101;28;20163;-78
2021/12/30 12:46:42;;;;;;;9.13;3.75;;;13.10;99.90;;;;;;5022124;28;20045;-78
2021/12/30 12:49:08;;;;;;;5.38;3.45;;;13.20;99.90;;;;;;5025670;28;20052;-79
2021/12/30 12:51:36;;;;;;;3.70;2.70;;;13.30;99.90;;;;;;5025388;28;20057;-78
2021/12/30 12:54:06;;;;;;;5.20;2.90;;;13.30;99.90;;;;;;5027239;28;20044;-78
2021/12/30 12:56:40;;;;;;;6.03;3.20;;;13.50;99.90;;;;;;5024303;28;20112;-78
2021/12/30 12:59:13;;;;;;;5.32;3.00;;;13.50;99.90;;;;;;5022361;28;20026;-78